Bahawalpur Weather



Bahawalpur's Current Weather

Temprature 32.91o broken clouds

broken clouds

Rain: 0 %

Min Temprature32.91o
Max Temprature32.91o
Humidity17
Wind Speed0.95 m/h
Sun Rise06:16:04
Sun Set17:40:51
Current Time: 18-Oct-2019 16:24:50
Lat/Lon: 29.39, 71.66




Bahawalpur's Geo Location



Bahawalpur's Weather Forecast

Time Overall Temp Min Temp Max Temp Humidity Wind Speed Rain
18-Oct-2019 (Fri)
17:00:00 light rain 29.590 29.590 32.910 17 0.95 m/h 6 %
20:00:00 scattered clouds 24.120 24.120 26.610 27 3.3 m/h 0 %
23:00:00 few clouds 23.380 23.380 25.038 34 6.76 m/h 0 %
19-Oct-2019 (Sat)
02:00:00 clear sky 20.170 20.170 20.998 53 3.09 m/h 0 %
05:00:00 clear sky 20.873 20.873 20.873 49 4.07 m/h 0 %
08:00:00 clear sky 25.071 25.071 25.071 39 5.65 m/h 0 %
11:00:00 clear sky 32.680 32.680 32.680 24 4.75 m/h 0 %
14:00:00 clear sky 36.136 36.136 36.136 17 3.19 m/h 0 %
17:00:00 few clouds 33.592 33.592 33.592 16 1.45 m/h 0 %
20:00:00 broken clouds 27.118 27.118 27.118 29 3.14 m/h 0 %
23:00:00 scattered clouds 25.697 25.697 25.697 30 3.78 m/h 0 %
20-Oct-2019 (Sun)
02:00:00 clear sky 23.997 23.997 23.997 31 2.65 m/h 0 %
05:00:00 few clouds 22.654 22.654 22.654 34 2.67 m/h 0 %
08:00:00 broken clouds 26.692 26.692 26.692 26 2.89 m/h 0 %
11:00:00 scattered clouds 34.600 34.600 34.600 16 2.53 m/h 0 %
14:00:00 clear sky 37.252 37.252 37.252 10 1.23 m/h 0 %
17:00:00 clear sky 34.108 34.108 34.108 12 1.38 m/h 0 %
20:00:00 scattered clouds 27.462 27.462 27.462 19 1.45 m/h 0 %
23:00:00 few clouds 25.757 25.757 25.757 20 0.64 m/h 0 %
21-Oct-2019 (Mon)
02:00:00 clear sky 24.150 24.150 24.150 23 2.05 m/h 0 %
05:00:00 clear sky 23.341 23.341 23.341 25 0.5 m/h 0 %
08:00:00 clear sky 28.299 28.299 28.299 19 2.01 m/h 0 %
11:00:00 clear sky 35.967 35.967 35.967 11 3.71 m/h 0 %
14:00:00 clear sky 37.615 37.615 37.615 9 3.54 m/h 0 %
17:00:00 clear sky 34.634 34.634 34.634 10 2.96 m/h 0 %
20:00:00 clear sky 27.704 27.704 27.704 16 1.87 m/h 0 %
23:00:00 clear sky 26.970 26.970 26.970 17 2.36 m/h 0 %
22-Oct-2019 (Tue)
02:00:00 clear sky 24.776 24.776 24.776 20 1.54 m/h 0 %
05:00:00 clear sky 22.889 22.889 22.889 20 1.61 m/h 0 %
08:00:00 clear sky 27.982 27.982 27.982 15 1.01 m/h 0 %
11:00:00 clear sky 35.899 35.899 35.899 10 3.87 m/h 0 %
14:00:00 clear sky 38.079 38.079 38.079 7 4.23 m/h 0 %
17:00:00 clear sky 34.532 34.532 34.532 8 2.84 m/h 0 %
20:00:00 clear sky 26.350 26.350 26.350 15 0.24 m/h 0 %
23:00:00 clear sky 25.679 25.679 25.679 18 1.29 m/h 0 %
23-Oct-2019 (Wed)
02:00:00 clear sky 24.516 24.516 24.516 22 2 m/h 0 %
05:00:00 clear sky 22.897 22.897 22.897 22 2.81 m/h 0 %
08:00:00 clear sky 27.259 27.259 27.259 14 3.44 m/h 0 %
11:00:00 clear sky 36.505 36.505 36.505 10 4.04 m/h 0 %
14:00:00 clear sky 38.449 38.449 38.449 8 4.38 m/h 0 %


Bahawalpur's Tourist Spots

Historical Places in Bahawalpur

Famous Cities (61)